TimeCDT,TemperatureF,Dew PointF,Humidity,Sea Level PressureIn,VisibilityMPH,Wind Direction,Wind SpeedMPH,Gust SpeedMPH,PrecipitationIn,Events,Conditions,WindDirDegrees,DateUTC
12:11 AM,50.0,48.2,94,30.06,7.0,Calm,Calm,-,N/A,,Clear,0,2013-08-03 05:11:00
12:31 AM,50.0,48.2,94,30.07,10.0,Calm,Calm,-,N/A,,Clear,0,2013-08-03 05:31:00
12:51 AM,50.0,48.2,94,30.08,2.0,Calm,Calm,-,N/A,,Clear,0,2013-08-03 05:51:00
1:11 AM,48.2,48.2,100,30.08,10.0,Calm,Calm,-,N/A,,Clear,0,2013-08-03 06:11:00
1:31 AM,48.2,48.2,100,30.08,10.0,Calm,Calm,-,N/A,,Clear,0,2013-08-03 06:31:00
1:51 AM,48.2,46.4,93,30.08,10.0,Calm,Calm,-,N/A,,Clear,0,2013-08-03 06:51:00
2:11 AM,48.2,46.4,93,30.08,10.0,Calm,Calm,-,N/A,,Clear,0,2013-08-03 07:11:00
2:31 AM,48.2,46.4,93,30.08,10.0,Calm,Calm,-,N/A,,Clear,0,2013-08-03 07:31:00
2:51 AM,48.2,46.4,93,30.08,10.0,Calm,Calm,-,N/A,,Clear,0,2013-08-03 07:51:00
3:11 AM,48.2,46.4,93,30.09,10.0,Calm,Calm,-,N/A,,Clear,0,2013-08-03 08:11:00
3:31 AM,46.4,44.6,93,30.09,10.0,Calm,Calm,-,N/A,,Clear,0,2013-08-03 08:31:00
3:51 AM,46.4,44.6,93,30.09,10.0,Calm,Calm,-,N/A,,Clear,0,2013-08-03 08:51:00
4:11 AM,46.4,46.4,100,30.10,5.0,Calm,Calm,-,N/A,,Clear,0,2013-08-03 09:11:00
4:31 AM,46.4,46.4,100,30.10,10.0,Calm,Calm,-,N/A,,Clear,0,2013-08-03 09:31:00
4:51 AM,44.6,42.8,93,30.11,5.0,Calm,Calm,-,N/A,,Clear,0,2013-08-03 09:51:00
5:11 AM,46.4,44.6,93,30.11,10.0,Calm,Calm,-,N/A,,Clear,0,2013-08-03 10:11:00
5:31 AM,44.6,44.6,100,30.11,10.0,Calm,Calm,-,N/A,,Clear,0,2013-08-03 10:31:00
5:51 AM,44.6,44.6,100,30.11,10.0,Calm,Calm,-,N/A,,Clear,0,2013-08-03 10:51:00
6:11 AM,44.6,44.6,100,30.11,10.0,Calm,Calm,-,N/A,,Clear,0,2013-08-03 11:11:00
6:31 AM,44.6,42.8,93,30.12,10.0,Calm,Calm,-,N/A,,Clear,0,2013-08-03 11:31:00
6:51 AM,46.4,44.6,93,30.13,10.0,Calm,Calm,-,N/A,,Clear,0,2013-08-03 11:51:00
7:11 AM,50.0,48.2,94,30.13,10.0,Calm,Calm,-,N/A,,Clear,0,2013-08-03 12:11:00
7:31 AM,53.6,51.8,94,30.13,10.0,Calm,Calm,-,N/A,,Clear,0,2013-08-03 12:31:00
7:51 AM,57.2,53.6,88,30.15,10.0,NNW,3.5,-,N/A,,Clear,340,2013-08-03 12:51:00
8:11 AM,59.0,51.8,77,30.15,10.0,Calm,Calm,-,N/A,,Clear,0,2013-08-03 13:11:00
8:31 AM,62.6,51.8,68,30.15,10.0,Calm,Calm,-,N/A,,Clear,0,2013-08-03 13:31:00
8:51 AM,62.6,53.6,72,30.16,10.0,Calm,Calm,-,N/A,,Clear,0,2013-08-03 13:51:00
9:11 AM,64.4,53.6,68,30.16,10.0,Calm,Calm,-,N/A,,Clear,0,2013-08-03 14:11:00
9:31 AM,66.2,51.8,60,30.17,10.0,NW,3.5,-,N/A,,Clear,320,2013-08-03 14:31:00
9:51 AM,68.0,51.8,56,30.17,10.0,NNW,4.6,-,N/A,,Clear,330,2013-08-03 14:51:00
10:11 AM,69.8,51.8,53,30.17,10.0,WNW,5.8,-,N/A,,Clear,300,2013-08-03 15:11:00
10:31 AM,69.8,53.6,56,30.18,10.0,WNW,6.9,-,N/A,,Scattered Clouds,290,2013-08-03 15:31:00
10:51 AM,69.8,53.6,56,30.17,10.0,WNW,5.8,-,N/A,,Clear,300,2013-08-03 15:51:00
11:11 AM,69.8,53.6,56,30.18,10.0,WNW,3.5,-,N/A,,Clear,300,2013-08-03 16:11:00
11:32 AM,71.6,50.0,46,30.18,10.0,NW,6.9,-,N/A,,Clear,320,2013-08-03 16:32:00
11:51 AM,71.6,48.2,43,30.18,10.0,Calm,Calm,-,N/A,,Scattered Clouds,0,2013-08-03 16:51:00
12:12 PM,73.4,48.2,41,30.17,10.0,NNW,5.8,-,N/A,,Scattered Clouds,330,2013-08-03 17:12:00
12:20 PM,73.4,48.2,41,30.18,10.0,NW,6.9,-,N/A,,Scattered Clouds,310,2013-08-03 17:20:00
12:41 PM,73.4,46.4,38,30.18,10.0,NW,6.9,-,N/A,,Clear,310,2013-08-03 17:41:00
1:01 PM,73.4,46.4,38,30.17,10.0,NW,4.6,-,N/A,,Clear,310,2013-08-03 18:01:00
1:21 PM,73.4,46.4,38,30.17,10.0,NW,8.1,-,N/A,,Scattered Clouds,310,2013-08-03 18:21:00
1:41 PM,71.6,48.2,43,30.17,10.0,WNW,8.1,-,N/A,,Mostly Cloudy,300,2013-08-03 18:41:00
2:01 PM,71.6,48.2,43,30.18,10.0,NNW,9.2,-,N/A,,Mostly Cloudy,330,2013-08-03 19:01:00
2:21 PM,73.4,48.2,41,30.17,10.0,North,6.9,-,N/A,,Mostly Cloudy,360,2013-08-03 19:21:00
2:45 PM,-9999,-9999,N/A,30.17,10.0,WNW,5.8,-,N/A,,Scattered Clouds,300,2013-08-03 19:45:00
2:52 PM,77.0,46.4,34,30.17,10.0,NW,8.1,-,N/A,,Scattered Clouds,320,2013-08-03 19:52:00
3:11 PM,75.2,48.2,38,30.17,10.0,NW,8.1,-,N/A,,Mostly Cloudy,320,2013-08-03 20:11:00
3:31 PM,73.4,46.4,38,30.17,10.0,NW,12.7,-,N/A,,Scattered Clouds,310,2013-08-03 20:31:00
3:51 PM,75.2,42.8,31,30.16,10.0,NW,10.4,-,N/A,,Clear,320,2013-08-03 20:51:00
4:11 PM,75.2,44.6,34,30.16,10.0,NNW,5.8,-,N/A,,Clear,340,2013-08-03 21:11:00
4:31 PM,73.4,46.4,38,30.16,10.0,NNW,9.2,-,N/A,,Scattered Clouds,330,2013-08-03 21:31:00
4:51 PM,73.4,42.8,33,30.16,10.0,NNW,6.9,-,N/A,,Scattered Clouds,340,2013-08-03 21:51:00
5:12 PM,75.2,44.6,34,30.16,10.0,NW,11.5,-,N/A,,Scattered Clouds,320,2013-08-03 22:12:00
5:31 PM,75.2,42.8,31,30.16,10.0,NW,12.7,16.1,N/A,,Scattered Clouds,320,2013-08-03 22:31:00
5:51 PM,75.2,42.8,31,30.16,10.0,NW,6.9,-,N/A,,Clear,320,2013-08-03 22:51:00
6:11 PM,73.4,42.8,33,30.16,10.0,NNW,9.2,-,N/A,,Clear,340,2013-08-03 23:11:00
6:31 PM,73.4,41.0,31,30.16,10.0,NNW,8.1,-,N/A,,Clear,340,2013-08-03 23:31:00
6:52 PM,73.4,42.8,33,30.16,10.0,NNW,8.1,-,N/A,,Clear,340,2013-08-03 23:52:00
7:11 PM,71.6,44.6,38,30.16,10.0,NNW,8.1,-,N/A,,Clear,340,2013-08-04 00:11:00
7:32 PM,71.6,48.2,43,30.16,10.0,North,6.9,-,N/A,,Clear,350,2013-08-04 00:32:00
7:51 PM,69.8,48.2,46,30.17,10.0,North,5.8,-,N/A,,Clear,360,2013-08-04 00:51:00
8:11 PM,66.2,48.2,52,30.17,10.0,NNW,4.6,-,N/A,,Clear,340,2013-08-04 01:11:00
8:31 PM,64.4,48.2,56,30.17,10.0,NNW,4.6,-,N/A,,Clear,340,2013-08-04 01:31:00
8:51 PM,62.6,50.0,63,30.17,10.0,WNW,4.6,-,N/A,,Clear,300,2013-08-04 01:51:00
9:11 PM,57.2,48.2,72,30.18,10.0,Calm,Calm,-,N/A,,Clear,0,2013-08-04 02:11:00
9:31 PM,57.2,50.0,77,30.19,10.0,Calm,Calm,-,N/A,,Clear,0,2013-08-04 02:31:00
9:51 PM,55.4,50.0,82,30.19,10.0,Calm,Calm,-,N/A,,Clear,0,2013-08-04 02:51:00
10:11 PM,53.6,48.2,82,30.20,10.0,Calm,Calm,-,N/A,,Clear,0,2013-08-04 03:11:00
10:31 PM,53.6,48.2,82,30.21,10.0,Calm,Calm,-,N/A,,Clear,0,2013-08-04 03:31:00
10:51 PM,53.6,48.2,82,30.21,10.0,Calm,Calm,-,N/A,,Clear,0,2013-08-04 03:51:00
11:11 PM,53.6,48.2,82,30.21,10.0,Calm,Calm,-,N/A,,Clear,0,2013-08-04 04:11:00
11:31 PM,53.6,48.2,82,30.22,10.0,Calm,Calm,-,N/A,,Clear,0,2013-08-04 04:31:00
11:51 PM,55.4,48.2,77,30.23,10.0,Calm,Calm,-,N/A,,Clear,0,2013-08-04 04:51:00